sensor_id;sensor_type;location;lat;lon;timestamp;P1;durP1;ratioP1;P2;durP2;ratioP2
44766;SDS011;30487;48.716;9.272;2024-03-02T00:01:11;15.80;;;8.40;;
44766;SDS011;30487;48.716;9.272;2024-03-02T00:03:37;15.15;;;8.70;;
44766;SDS011;30487;48.716;9.272;2024-03-02T00:06:03;13.90;;;8.27;;
44766;SDS011;30487;48.716;9.272;2024-03-02T00:08:29;15.88;;;8.77;;
44766;SDS011;30487;48.716;9.272;2024-03-02T00:10:59;15.32;;;8.70;;
44766;SDS011;30487;48.716;9.272;2024-03-02T00:13:26;16.80;;;9.20;;
44766;SDS011;30487;48.716;9.272;2024-03-02T00:15:55;14.25;;;9.00;;
44766;SDS011;30487;48.716;9.272;2024-03-02T00:20:55;15.45;;;8.52;;
44766;SDS011;30487;48.716;9.272;2024-03-02T00:23:24;17.30;;;9.20;;
44766;SDS011;30487;48.716;9.272;2024-03-02T00:25:54;17.52;;;9.15;;
44766;SDS011;30487;48.716;9.272;2024-03-02T00:28:24;15.70;;;9.25;;
44766;SDS011;30487;48.716;9.272;2024-03-02T00:30:54;15.90;;;9.35;;
44766;SDS011;30487;48.716;9.272;2024-03-02T00:33:32;17.25;;;9.70;;
44766;SDS011;30487;48.716;9.272;2024-03-02T00:36:08;17.15;;;9.23;;
44766;SDS011;30487;48.716;9.272;2024-03-02T00:38:38;17.90;;;10.13;;
44766;SDS011;30487;48.716;9.272;2024-03-02T00:41:17;15.23;;;9.05;;
44766;SDS011;30487;48.716;9.272;2024-03-02T00:46:50;18.35;;;9.73;;
44766;SDS011;30487;48.716;9.272;2024-03-02T00:49:22;17.95;;;10.63;;
44766;SDS011;30487;48.716;9.272;2024-03-02T00:51:49;19.00;;;10.00;;
44766;SDS011;30487;48.716;9.272;2024-03-02T00:54:19;15.32;;;9.80;;
44766;SDS011;30487;48.716;9.272;2024-03-02T00:56:54;19.10;;;10.15;;
44766;SDS011;30487;48.716;9.272;2024-03-02T00:59:21;19.52;;;10.48;;
44766;SDS011;30487;48.716;9.272;2024-03-02T01:01:47;15.93;;;9.93;;
44766;SDS011;30487;48.716;9.272;2024-03-02T01:04:16;17.13;;;10.10;;
44766;SDS011;30487;48.716;9.272;2024-03-02T01:06:44;22.52;;;9.98;;
44766;SDS011;30487;48.716;9.272;2024-03-02T01:09:10;17.75;;;10.45;;
44766;SDS011;30487;48.716;9.272;2024-03-02T01:11:37;18.27;;;10.43;;
44766;SDS011;30487;48.716;9.272;2024-03-02T01:14:03;17.20;;;9.70;;
44766;SDS011;30487;48.716;9.272;2024-03-02T01:16:29;18.10;;;10.00;;
44766;SDS011;30487;48.716;9.272;2024-03-02T01:18:54;18.80;;;10.85;;
44766;SDS011;30487;48.716;9.272;2024-03-02T01:21:21;19.23;;;10.52;;
44766;SDS011;30487;48.716;9.272;2024-03-02T01:23:47;19.05;;;10.27;;
44766;SDS011;30487;48.716;9.272;2024-03-02T01:26:13;18.65;;;10.52;;
44766;SDS011;30487;48.716;9.272;2024-03-02T01:28:38;18.52;;;10.38;;
44766;SDS011;30487;48.716;9.272;2024-03-02T01:31:04;17.92;;;10.10;;
44766;SDS011;30487;48.716;9.272;2024-03-02T01:33:29;18.67;;;10.23;;
44766;SDS011;30487;48.716;9.272;2024-03-02T01:35:55;18.58;;;10.45;;
44766;SDS011;30487;48.716;9.272;2024-03-02T01:38:21;20.35;;;10.52;;
44766;SDS011;30487;48.716;9.272;2024-03-02T01:40:46;17.92;;;10.02;;
44766;SDS011;30487;48.716;9.272;2024-03-02T01:43:12;17.80;;;10.27;;
44766;SDS011;30487;48.716;9.272;2024-03-02T01:45:38;18.58;;;10.23;;
44766;SDS011;30487;48.716;9.272;2024-03-02T01:48:04;17.95;;;10.63;;
44766;SDS011;30487;48.716;9.272;2024-03-02T01:50:32;20.50;;;10.27;;
44766;SDS011;30487;48.716;9.272;2024-03-02T01:52:58;16.58;;;9.85;;
44766;SDS011;30487;48.716;9.272;2024-03-02T01:55:24;22.85;;;10.60;;
44766;SDS011;30487;48.716;9.272;2024-03-02T01:57:50;18.58;;;10.40;;
44766;SDS011;30487;48.716;9.272;2024-03-02T02:00:17;17.40;;;10.90;;
44766;SDS011;30487;48.716;9.272;2024-03-02T02:02:44;18.70;;;10.77;;
44766;SDS011;30487;48.716;9.272;2024-03-02T02:05:10;19.50;;;10.60;;
44766;SDS011;30487;48.716;9.272;2024-03-02T02:07:36;21.05;;;11.60;;
44766;SDS011;30487;48.716;9.272;2024-03-02T02:10:02;18.98;;;11.13;;
44766;SDS011;30487;48.716;9.272;2024-03-02T02:12:28;19.58;;;11.40;;
44766;SDS011;30487;48.716;9.272;2024-03-02T02:14:53;21.25;;;11.52;;
44766;SDS011;30487;48.716;9.272;2024-03-02T02:17:19;20.73;;;11.82;;
44766;SDS011;30487;48.716;9.272;2024-03-02T02:19:45;21.13;;;11.55;;
44766;SDS011;30487;48.716;9.272;2024-03-02T02:22:10;21.38;;;11.75;;
44766;SDS011;30487;48.716;9.272;2024-03-02T02:24:40;20.63;;;11.50;;
44766;SDS011;30487;48.716;9.272;2024-03-02T02:27:06;20.67;;;11.05;;
44766;SDS011;30487;48.716;9.272;2024-03-02T02:29:32;18.65;;;10.48;;
44766;SDS011;30487;48.716;9.272;2024-03-02T02:31:58;22.05;;;10.98;;
44766;SDS011;30487;48.716;9.272;2024-03-02T02:34:24;19.25;;;11.02;;
44766;SDS011;30487;48.716;9.272;2024-03-02T02:36:49;18.33;;;10.90;;
44766;SDS011;30487;48.716;9.272;2024-03-02T02:39:15;21.20;;;11.63;;
44766;SDS011;30487;48.716;9.272;2024-03-02T02:41:43;17.70;;;10.50;;
44766;SDS011;30487;48.716;9.272;2024-03-02T02:44:09;19.08;;;10.57;;
44766;SDS011;30487;48.716;9.272;2024-03-02T02:46:37;18.00;;;10.70;;
44766;SDS011;30487;48.716;9.272;2024-03-02T02:49:03;19.92;;;10.80;;
44766;SDS011;30487;48.716;9.272;2024-03-02T02:51:29;21.75;;;11.93;;
44766;SDS011;30487;48.716;9.272;2024-03-02T02:53:54;20.75;;;10.90;;
44766;SDS011;30487;48.716;9.272;2024-03-02T02:56:20;18.73;;;10.60;;
44766;SDS011;30487;48.716;9.272;2024-03-02T02:58:46;19.27;;;10.60;;
44766;SDS011;30487;48.716;9.272;2024-03-02T03:01:11;19.92;;;10.75;;
44766;SDS011;30487;48.716;9.272;2024-03-02T03:03:37;19.42;;;11.27;;
44766;SDS011;30487;48.716;9.272;2024-03-02T03:06:02;17.42;;;10.15;;
44766;SDS011;30487;48.716;9.272;2024-03-02T03:08:28;17.20;;;10.23;;
44766;SDS011;30487;48.716;9.272;2024-03-02T03:10:54;18.63;;;10.13;;
44766;SDS011;30487;48.716;9.272;2024-03-02T03:13:20;17.10;;;9.93;;
44766;SDS011;30487;48.716;9.272;2024-03-02T03:15:45;18.38;;;10.32;;
44766;SDS011;30487;48.716;9.272;2024-03-02T03:18:11;18.10;;;9.63;;
44766;SDS011;30487;48.716;9.272;2024-03-02T03:20:36;19.40;;;10.63;;
44766;SDS011;30487;48.716;9.272;2024-03-02T03:23:02;19.15;;;10.88;;
44766;SDS011;30487;48.716;9.272;2024-03-02T03:25:29;17.58;;;10.75;;
44766;SDS011;30487;48.716;9.272;2024-03-02T03:27:55;18.05;;;10.50;;
44766;SDS011;30487;48.716;9.272;2024-03-02T03:30:20;18.88;;;10.82;;
44766;SDS011;30487;48.716;9.272;2024-03-02T03:32:46;19.13;;;10.77;;
44766;SDS011;30487;48.716;9.272;2024-03-02T03:35:13;17.90;;;10.38;;
44766;SDS011;30487;48.716;9.272;2024-03-02T03:37:40;20.10;;;11.20;;
44766;SDS011;30487;48.716;9.272;2024-03-02T03:40:06;18.23;;;11.05;;
44766;SDS011;30487;48.716;9.272;2024-03-02T03:42:37;18.73;;;10.63;;
44766;SDS011;30487;48.716;9.272;2024-03-02T03:45:04;18.60;;;11.00;;
44766;SDS011;30487;48.716;9.272;2024-03-02T03:47:33;18.70;;;10.82;;
44766;SDS011;30487;48.716;9.272;2024-03-02T03:49:59;20.38;;;11.00;;
44766;SDS011;30487;48.716;9.272;2024-03-02T03:52:24;18.58;;;10.20;;
44766;SDS011;30487;48.716;9.272;2024-03-02T03:54:50;19.02;;;10.25;;
44766;SDS011;30487;48.716;9.272;2024-03-02T03:57:16;16.67;;;10.18;;
44766;SDS011;30487;48.716;9.272;2024-03-02T03:59:42;16.63;;;10.27;;
44766;SDS011;30487;48.716;9.272;2024-03-02T04:02:08;20.17;;;10.70;;
44766;SDS011;30487;48.716;9.272;2024-03-02T04:04:34;18.42;;;11.30;;
44766;SDS011;30487;48.716;9.272;2024-03-02T04:07:00;19.58;;;11.10;;
44766;SDS011;30487;48.716;9.272;2024-03-02T04:09:26;21.00;;;10.95;;
44766;SDS011;30487;48.716;9.272;2024-03-02T04:11:52;20.27;;;11.52;;
44766;SDS011;30487;48.716;9.272;2024-03-02T04:14:18;20.67;;;11.88;;
44766;SDS011;30487;48.716;9.272;2024-03-02T04:16:43;21.50;;;12.32;;
44766;SDS011;30487;48.716;9.272;2024-03-02T04:19:09;21.40;;;12.27;;
44766;SDS011;30487;48.716;9.272;2024-03-02T04:21:34;22.42;;;12.55;;
44766;SDS011;30487;48.716;9.272;2024-03-02T04:24:00;23.33;;;12.20;;
44766;SDS011;30487;48.716;9.272;2024-03-02T04:26:26;20.80;;;11.63;;
44766;SDS011;30487;48.716;9.272;2024-03-02T04:28:52;19.95;;;11.20;;
44766;SDS011;30487;48.716;9.272;2024-03-02T04:31:17;20.45;;;11.43;;
44766;SDS011;30487;48.716;9.272;2024-03-02T04:33:43;18.45;;;10.75;;
44766;SDS011;30487;48.716;9.272;2024-03-02T04:36:09;19.08;;;11.20;;
44766;SDS011;30487;48.716;9.272;2024-03-02T04:38:35;20.75;;;11.63;;
44766;SDS011;30487;48.716;9.272;2024-03-02T04:41:01;22.73;;;11.50;;
44766;SDS011;30487;48.716;9.272;2024-03-02T04:43:26;18.20;;;10.90;;
44766;SDS011;30487;48.716;9.272;2024-03-02T04:45:52;18.90;;;11.60;;
44766;SDS011;30487;48.716;9.272;2024-03-02T04:48:17;20.55;;;11.25;;
44766;SDS011;30487;48.716;9.272;2024-03-02T04:50:44;23.98;;;11.25;;
44766;SDS011;30487;48.716;9.272;2024-03-02T04:53:10;20.17;;;11.10;;
44766;SDS011;30487;48.716;9.272;2024-03-02T04:55:35;19.10;;;11.18;;
44766;SDS011;30487;48.716;9.272;2024-03-02T04:58:06;18.55;;;11.45;;
44766;SDS011;30487;48.716;9.272;2024-03-02T05:00:35;19.60;;;10.75;;
44766;SDS011;30487;48.716;9.272;2024-03-02T05:03:01;20.42;;;11.55;;
44766;SDS011;30487;48.716;9.272;2024-03-02T05:05:27;18.92;;;10.68;;
44766;SDS011;30487;48.716;9.272;2024-03-02T05:07:53;18.90;;;11.35;;
44766;SDS011;30487;48.716;9.272;2024-03-02T05:10:18;20.52;;;11.55;;
44766;SDS011;30487;48.716;9.272;2024-03-02T05:12:44;19.38;;;11.10;;
44766;SDS011;30487;48.716;9.272;2024-03-02T05:15:10;21.00;;;11.52;;
44766;SDS011;30487;48.716;9.272;2024-03-02T05:17:37;19.63;;;11.32;;
44766;SDS011;30487;48.716;9.272;2024-03-02T05:20:04;19.33;;;11.65;;
44766;SDS011;30487;48.716;9.272;2024-03-02T05:22:30;18.45;;;10.95;;
44766;SDS011;30487;48.716;9.272;2024-03-02T05:24:56;19.35;;;11.32;;
44766;SDS011;30487;48.716;9.272;2024-03-02T05:27:21;19.90;;;11.32;;
44766;SDS011;30487;48.716;9.272;2024-03-02T05:29:47;18.67;;;11.25;;
44766;SDS011;30487;48.716;9.272;2024-03-02T05:32:13;19.95;;;11.25;;
44766;SDS011;30487;48.716;9.272;2024-03-02T05:34:38;20.65;;;11.07;;
44766;SDS011;30487;48.716;9.272;2024-03-02T05:37:04;21.15;;;11.70;;
44766;SDS011;30487;48.716;9.272;2024-03-02T05:39:29;20.90;;;11.55;;
44766;SDS011;30487;48.716;9.272;2024-03-02T05:41:55;19.42;;;11.50;;
44766;SDS011;30487;48.716;9.272;2024-03-02T05:44:21;19.10;;;10.63;;
44766;SDS011;30487;48.716;9.272;2024-03-02T05:46:47;18.58;;;10.15;;
44766;SDS011;30487;48.716;9.272;2024-03-02T05:49:13;19.83;;;10.35;;
44766;SDS011;30487;48.716;9.272;2024-03-02T05:51:38;18.10;;;10.27;;
44766;SDS011;30487;48.716;9.272;2024-03-02T05:54:04;18.98;;;11.65;;
44766;SDS011;30487;48.716;9.272;2024-03-02T05:56:29;21.67;;;11.02;;
44766;SDS011;30487;48.716;9.272;2024-03-02T05:58:55;20.13;;;10.98;;
44766;SDS011;30487;48.716;9.272;2024-03-02T06:01:39;19.55;;;10.60;;
44766;SDS011;30487;48.716;9.272;2024-03-02T06:04:08;18.45;;;10.60;;
44766;SDS011;30487;48.716;9.272;2024-03-02T06:06:36;19.20;;;11.18;;
44766;SDS011;30487;48.716;9.272;2024-03-02T06:09:02;22.85;;;11.32;;
44766;SDS011;30487;48.716;9.272;2024-03-02T06:11:32;19.60;;;10.65;;
44766;SDS011;30487;48.716;9.272;2024-03-02T06:14:04;18.27;;;10.55;;
44766;SDS011;30487;48.716;9.272;2024-03-02T06:16:30;20.23;;;11.30;;
44766;SDS011;30487;48.716;9.272;2024-03-02T06:18:56;21.08;;;11.45;;
44766;SDS011;30487;48.716;9.272;2024-03-02T06:21:24;18.10;;;10.85;;
44766;SDS011;30487;48.716;9.272;2024-03-02T06:23:50;19.33;;;10.85;;
44766;SDS011;30487;48.716;9.272;2024-03-02T06:26:16;20.15;;;11.27;;
44766;SDS011;30487;48.716;9.272;2024-03-02T06:28:42;18.98;;;11.55;;
44766;SDS011;30487;48.716;9.272;2024-03-02T06:31:08;19.92;;;11.50;;
44766;SDS011;30487;48.716;9.272;2024-03-02T06:33:34;17.75;;;10.05;;
44766;SDS011;30487;48.716;9.272;2024-03-02T06:36:00;18.55;;;10.85;;
44766;SDS011;30487;48.716;9.272;2024-03-02T06:38:25;20.25;;;10.88;;
44766;SDS011;30487;48.716;9.272;2024-03-02T06:40:51;15.75;;;9.77;;
44766;SDS011;30487;48.716;9.272;2024-03-02T06:43:17;18.92;;;10.82;;
44766;SDS011;30487;48.716;9.272;2024-03-02T06:45:42;18.30;;;10.43;;
44766;SDS011;30487;48.716;9.272;2024-03-02T06:48:08;18.75;;;11.05;;
44766;SDS011;30487;48.716;9.272;2024-03-02T06:50:33;21.48;;;11.10;;
44766;SDS011;30487;48.716;9.272;2024-03-02T06:52:59;22.58;;;10.82;;
44766;SDS011;30487;48.716;9.272;2024-03-02T06:55:25;18.40;;;10.13;;
44766;SDS011;30487;48.716;9.272;2024-03-02T06:57:50;17.38;;;9.70;;
44766;SDS011;30487;48.716;9.272;2024-03-02T07:00:17;18.45;;;10.68;;
44766;SDS011;30487;48.716;9.272;2024-03-02T07:02:43;18.45;;;10.60;;
44766;SDS011;30487;48.716;9.272;2024-03-02T07:05:09;15.02;;;9.63;;
44766;SDS011;30487;48.716;9.272;2024-03-02T07:07:36;16.63;;;10.07;;
44766;SDS011;30487;48.716;9.272;2024-03-02T07:10:02;17.42;;;10.43;;
44766;SDS011;30487;48.716;9.272;2024-03-02T07:12:29;16.83;;;10.20;;
44766;SDS011;30487;48.716;9.272;2024-03-02T07:14:54;18.60;;;10.20;;
44766;SDS011;30487;48.716;9.272;2024-03-02T07:17:29;15.07;;;8.52;;
44766;SDS011;30487;48.716;9.272;2024-03-02T07:19:55;14.57;;;8.35;;
44766;SDS011;30487;48.716;9.272;2024-03-02T07:22:21;14.93;;;8.57;;
44766;SDS011;30487;48.716;9.272;2024-03-02T07:24:47;14.27;;;8.10;;
44766;SDS011;30487;48.716;9.272;2024-03-02T07:27:14;14.07;;;8.27;;
44766;SDS011;30487;48.716;9.272;2024-03-02T07:29:40;14.43;;;8.07;;
44766;SDS011;30487;48.716;9.272;2024-03-02T07:32:06;15.68;;;8.00;;
44766;SDS011;30487;48.716;9.272;2024-03-02T07:34:32;12.80;;;7.60;;
44766;SDS011;30487;48.716;9.272;2024-03-02T07:36:58;15.65;;;7.43;;
44766;SDS011;30487;48.716;9.272;2024-03-02T07:39:24;13.13;;;7.85;;
44766;SDS011;30487;48.716;9.272;2024-03-02T07:41:50;12.75;;;7.40;;
44766;SDS011;30487;48.716;9.272;2024-03-02T07:44:16;13.63;;;7.47;;
44766;SDS011;30487;48.716;9.272;2024-03-02T07:46:44;11.02;;;6.88;;
44766;SDS011;30487;48.716;9.272;2024-03-02T07:49:11;13.75;;;7.60;;
44766;SDS011;30487;48.716;9.272;2024-03-02T07:51:40;12.32;;;6.97;;
44766;SDS011;30487;48.716;9.272;2024-03-02T07:54:06;9.68;;;6.55;;
44766;SDS011;30487;48.716;9.272;2024-03-02T07:56:31;11.57;;;7.05;;
44766;SDS011;30487;48.716;9.272;2024-03-02T07:58:57;12.35;;;6.90;;
44766;SDS011;30487;48.716;9.272;2024-03-02T08:01:26;11.45;;;6.82;;
44766;SDS011;30487;48.716;9.272;2024-03-02T08:03:54;11.38;;;7.03;;
44766;SDS011;30487;48.716;9.272;2024-03-02T08:06:22;13.00;;;7.50;;
44766;SDS011;30487;48.716;9.272;2024-03-02T08:08:47;12.35;;;7.35;;
44766;SDS011;30487;48.716;9.272;2024-03-02T08:11:13;12.32;;;7.10;;
44766;SDS011;30487;48.716;9.272;2024-03-02T08:13:39;11.85;;;6.93;;
44766;SDS011;30487;48.716;9.272;2024-03-02T08:16:04;11.32;;;6.68;;
44766;SDS011;30487;48.716;9.272;2024-03-02T08:18:32;11.48;;;6.32;;
44766;SDS011;30487;48.716;9.272;2024-03-02T08:20:59;11.00;;;6.18;;
44766;SDS011;30487;48.716;9.272;2024-03-02T08:23:25;10.50;;;6.05;;
44766;SDS011;30487;48.716;9.272;2024-03-02T08:25:50;10.63;;;5.82;;
44766;SDS011;30487;48.716;9.272;2024-03-02T08:28:16;8.95;;;5.57;;
44766;SDS011;30487;48.716;9.272;2024-03-02T08:30:42;9.82;;;5.88;;
44766;SDS011;30487;48.716;9.272;2024-03-02T08:33:08;10.75;;;6.22;;
44766;SDS011;30487;48.716;9.272;2024-03-02T08:35:33;10.57;;;6.22;;
44766;SDS011;30487;48.716;9.272;2024-03-02T08:38:02;10.48;;;5.93;;
44766;SDS011;30487;48.716;9.272;2024-03-02T08:40:28;9.95;;;5.63;;
44766;SDS011;30487;48.716;9.272;2024-03-02T08:42:54;9.77;;;5.50;;
44766;SDS011;30487;48.716;9.272;2024-03-02T08:45:20;10.70;;;6.15;;
44766;SDS011;30487;48.716;9.272;2024-03-02T08:47:46;11.20;;;6.00;;
44766;SDS011;30487;48.716;9.272;2024-03-02T08:50:12;7.30;;;4.85;;
44766;SDS011;30487;48.716;9.272;2024-03-02T08:52:37;11.52;;;5.45;;
44766;SDS011;30487;48.716;9.272;2024-03-02T08:55:04;9.63;;;5.20;;
44766;SDS011;30487;48.716;9.272;2024-03-02T08:57:30;9.15;;;5.55;;
44766;SDS011;30487;48.716;9.272;2024-03-02T08:59:56;8.13;;;5.25;;
44766;SDS011;30487;48.716;9.272;2024-03-02T09:02:22;11.20;;;5.00;;
44766;SDS011;30487;48.716;9.272;2024-03-02T09:04:48;7.88;;;4.95;;
44766;SDS011;30487;48.716;9.272;2024-03-02T09:07:14;7.82;;;5.18;;
44766;SDS011;30487;48.716;9.272;2024-03-02T09:09:40;8.57;;;5.10;;
44766;SDS011;30487;48.716;9.272;2024-03-02T09:12:06;6.90;;;4.43;;
44766;SDS011;30487;48.716;9.272;2024-03-02T09:14:32;7.55;;;4.82;;
44766;SDS011;30487;48.716;9.272;2024-03-02T09:16:58;8.63;;;4.90;;
44766;SDS011;30487;48.716;9.272;2024-03-02T09:19:24;6.88;;;4.38;;
44766;SDS011;30487;48.716;9.272;2024-03-02T09:21:49;6.10;;;4.20;;
44766;SDS011;30487;48.716;9.272;2024-03-02T09:24:15;6.30;;;4.32;;
44766;SDS011;30487;48.716;9.272;2024-03-02T09:26:41;7.07;;;4.50;;
44766;SDS011;30487;48.716;9.272;2024-03-02T09:29:06;7.25;;;4.63;;
44766;SDS011;30487;48.716;9.272;2024-03-02T09:31:32;8.73;;;4.85;;
44766;SDS011;30487;48.716;9.272;2024-03-02T09:33:57;6.45;;;4.28;;
44766;SDS011;30487;48.716;9.272;2024-03-02T09:36:23;6.70;;;4.57;;
44766;SDS011;30487;48.716;9.272;2024-03-02T09:38:49;7.20;;;5.03;;
44766;SDS011;30487;48.716;9.272;2024-03-02T09:41:14;6.85;;;4.72;;
44766;SDS011;30487;48.716;9.272;2024-03-02T09:43:40;6.95;;;4.53;;
44766;SDS011;30487;48.716;9.272;2024-03-02T09:46:08;7.70;;;4.63;;
44766;SDS011;30487;48.716;9.272;2024-03-02T09:48:34;5.85;;;4.18;;
44766;SDS011;30487;48.716;9.272;2024-03-02T09:51:00;7.07;;;4.88;;
44766;SDS011;30487;48.716;9.272;2024-03-02T09:53:29;6.28;;;4.45;;
44766;SDS011;30487;48.716;9.272;2024-03-02T09:55:57;6.40;;;4.30;;
44766;SDS011;30487;48.716;9.272;2024-03-02T09:58:27;7.95;;;4.00;;
44766;SDS011;30487;48.716;9.272;2024-03-02T10:00:52;10.85;;;4.45;;
44766;SDS011;30487;48.716;9.272;2024-03-02T10:03:18;7.78;;;4.70;;
44766;SDS011;30487;48.716;9.272;2024-03-02T10:05:44;6.88;;;4.05;;
44766;SDS011;30487;48.716;9.272;2024-03-02T10:08:10;5.43;;;3.45;;
44766;SDS011;30487;48.716;9.272;2024-03-02T10:13:08;5.05;;;3.40;;
44766;SDS011;30487;48.716;9.272;2024-03-02T10:15:37;5.38;;;3.45;;
44766;SDS011;30487;48.716;9.272;2024-03-02T10:18:05;7.53;;;3.72;;
44766;SDS011;30487;48.716;9.272;2024-03-02T10:20:34;6.30;;;3.35;;
44766;SDS011;30487;48.716;9.272;2024-03-02T10:23:13;5.18;;;3.53;;
44766;SDS011;30487;48.716;9.272;2024-03-02T10:25:40;5.05;;;3.47;;
44766;SDS011;30487;48.716;9.272;2024-03-02T10:28:08;5.65;;;3.30;;
44766;SDS011;30487;48.716;9.272;2024-03-02T10:30:34;4.65;;;3.15;;
44766;SDS011;30487;48.716;9.272;2024-03-02T10:33:01;5.63;;;3.47;;
44766;SDS011;30487;48.716;9.272;2024-03-02T10:35:27;5.32;;;3.10;;
44766;SDS011;30487;48.716;9.272;2024-03-02T10:37:53;4.47;;;3.17;;
44766;SDS011;30487;48.716;9.272;2024-03-02T10:40:22;4.38;;;2.97;;
44766;SDS011;30487;48.716;9.272;2024-03-02T10:42:49;4.15;;;3.10;;
44766;SDS011;30487;48.716;9.272;2024-03-02T10:45:16;3.95;;;2.78;;
44766;SDS011;30487;48.716;9.272;2024-03-02T10:47:44;4.32;;;2.92;;
44766;SDS011;30487;48.716;9.272;2024-03-02T10:50:11;3.97;;;3.00;;
44766;SDS011;30487;48.716;9.272;2024-03-02T10:52:37;5.05;;;2.80;;
44766;SDS011;30487;48.716;9.272;2024-03-02T10:55:07;4.43;;;3.10;;
44766;SDS011;30487;48.716;9.272;2024-03-02T10:57:53;6.22;;;2.97;;
44766;SDS011;30487;48.716;9.272;2024-03-02T11:00:20;5.03;;;3.30;;
44766;SDS011;30487;48.716;9.272;2024-03-02T11:02:52;3.50;;;2.70;;
44766;SDS011;30487;48.716;9.272;2024-03-02T11:05:28;4.55;;;2.70;;
44766;SDS011;30487;48.716;9.272;2024-03-02T11:07:57;3.78;;;2.55;;
44766;SDS011;30487;48.716;9.272;2024-03-02T11:10:37;4.97;;;2.70;;
44766;SDS011;30487;48.716;9.272;2024-03-02T11:13:12;6.07;;;3.00;;
44766;SDS011;30487;48.716;9.272;2024-03-02T11:15:39;6.30;;;3.00;;
44766;SDS011;30487;48.716;9.272;2024-03-02T11:18:08;4.60;;;2.70;;
44766;SDS011;30487;48.716;9.272;2024-03-02T11:20:36;2.97;;;2.20;;
44766;SDS011;30487;48.716;9.272;2024-03-02T11:23:04;2.80;;;2.30;;
44766;SDS011;30487;48.716;9.272;2024-03-02T11:25:34;4.45;;;2.03;;
44766;SDS011;30487;48.716;9.272;2024-03-02T11:28:06;5.55;;;2.38;;
44766;SDS011;30487;48.716;9.272;2024-03-02T11:33:01;3.75;;;2.00;;
44766;SDS011;30487;48.716;9.272;2024-03-02T11:35:37;2.55;;;1.80;;
44766;SDS011;30487;48.716;9.272;2024-03-02T11:38:03;3.38;;;1.40;;
44766;SDS011;30487;48.716;9.272;2024-03-02T11:40:29;2.22;;;1.35;;
44766;SDS011;30487;48.716;9.272;2024-03-02T11:42:55;6.57;;;1.55;;
44766;SDS011;30487;48.716;9.272;2024-03-02T11:45:30;3.65;;;0.88;;
44766;SDS011;30487;48.716;9.272;2024-03-02T11:47:59;1.35;;;0.90;;
44766;SDS011;30487;48.716;9.272;2024-03-02T11:50:34;0.95;;;0.80;;
44766;SDS011;30487;48.716;9.272;2024-03-02T11:53:08;1.67;;;1.02;;
44766;SDS011;30487;48.716;9.272;2024-03-02T11:55:35;2.22;;;1.35;;
44766;SDS011;30487;48.716;9.272;2024-03-02T11:58:04;2.22;;;0.90;;
44766;SDS011;30487;48.716;9.272;2024-03-02T12:00:30;2.03;;;1.10;;
44766;SDS011;30487;48.716;9.272;2024-03-02T12:03:03;1.40;;;1.20;;
44766;SDS011;30487;48.716;9.272;2024-03-02T12:07:55;3.38;;;1.10;;
44766;SDS011;30487;48.716;9.272;2024-03-02T12:10:22;2.30;;;1.35;;
44766;SDS011;30487;48.716;9.272;2024-03-02T12:12:54;3.75;;;1.58;;
44766;SDS011;30487;48.716;9.272;2024-03-02T12:15:22;2.80;;;1.40;;
44766;SDS011;30487;48.716;9.272;2024-03-02T12:17:52;2.10;;;1.27;;
44766;SDS011;30487;48.716;9.272;2024-03-02T12:20:19;3.92;;;1.25;;
44766;SDS011;30487;48.716;9.272;2024-03-02T12:22:44;2.08;;;1.20;;
44766;SDS011;30487;48.716;9.272;2024-03-02T12:25:11;2.00;;;0.90;;
44766;SDS011;30487;48.716;9.272;2024-03-02T12:27:36;2.28;;;1.10;;
44766;SDS011;30487;48.716;9.272;2024-03-02T12:30:04;1.63;;;1.10;;
44766;SDS011;30487;48.716;9.272;2024-03-02T12:32:33;1.73;;;0.80;;
44766;SDS011;30487;48.716;9.272;2024-03-02T12:34:59;2.85;;;1.20;;
44766;SDS011;30487;48.716;9.272;2024-03-02T12:37:24;2.80;;;1.20;;
44766;SDS011;30487;48.716;9.272;2024-03-02T12:39:52;2.70;;;1.10;;
44766;SDS011;30487;48.716;9.272;2024-03-02T12:42:18;1.08;;;0.90;;
44766;SDS011;30487;48.716;9.272;2024-03-02T12:44:43;1.73;;;1.08;;
44766;SDS011;30487;48.716;9.272;2024-03-02T12:47:09;2.95;;;1.17;;
44766;SDS011;30487;48.716;9.272;2024-03-02T12:49:35;1.40;;;1.00;;
44766;SDS011;30487;48.716;9.272;2024-03-02T12:52:00;2.35;;;1.23;;
44766;SDS011;30487;48.716;9.272;2024-03-02T12:54:27;1.33;;;0.90;;
44766;SDS011;30487;48.716;9.272;2024-03-02T12:56:53;2.45;;;1.30;;
44766;SDS011;30487;48.716;9.272;2024-03-02T12:59:19;1.60;;;0.98;;
44766;SDS011;30487;48.716;9.272;2024-03-02T13:01:53;1.73;;;1.20;;
44766;SDS011;30487;48.716;9.272;2024-03-02T13:04:24;2.28;;;1.20;;
44766;SDS011;30487;48.716;9.272;2024-03-02T13:06:51;1.65;;;0.93;;
44766;SDS011;30487;48.716;9.272;2024-03-02T13:09:17;3.60;;;0.90;;
44766;SDS011;30487;48.716;9.272;2024-03-02T13:11:43;1.25;;;0.90;;
44766;SDS011;30487;48.716;9.272;2024-03-02T13:14:10;1.08;;;0.88;;
44766;SDS011;30487;48.716;9.272;2024-03-02T13:16:39;1.63;;;0.90;;
44766;SDS011;30487;48.716;9.272;2024-03-02T13:19:08;1.33;;;0.90;;
44766;SDS011;30487;48.716;9.272;2024-03-02T13:21:34;2.83;;;0.90;;
44766;SDS011;30487;48.716;9.272;2024-03-02T13:24:00;3.08;;;0.80;;
44766;SDS011;30487;48.716;9.272;2024-03-02T13:26:26;1.35;;;1.00;;
44766;SDS011;30487;48.716;9.272;2024-03-02T13:28:52;1.52;;;0.90;;
44766;SDS011;30487;48.716;9.272;2024-03-02T13:31:18;1.55;;;0.90;;
44766;SDS011;30487;48.716;9.272;2024-03-02T13:33:43;1.25;;;0.90;;
44766;SDS011;30487;48.716;9.272;2024-03-02T13:36:09;1.77;;;1.15;;
44766;SDS011;30487;48.716;9.272;2024-03-02T13:38:35;1.95;;;1.02;;
44766;SDS011;30487;48.716;9.272;2024-03-02T13:41:01;1.40;;;0.77;;
44766;SDS011;30487;48.716;9.272;2024-03-02T13:43:26;3.97;;;0.90;;
44766;SDS011;30487;48.716;9.272;2024-03-02T13:45:52;1.88;;;0.70;;
44766;SDS011;30487;48.716;9.272;2024-03-02T13:48:18;1.25;;;0.73;;
44766;SDS011;30487;48.716;9.272;2024-03-02T13:50:45;1.25;;;0.80;;
44766;SDS011;30487;48.716;9.272;2024-03-02T13:53:11;1.25;;;0.98;;
44766;SDS011;30487;48.716;9.272;2024-03-02T13:55:37;1.00;;;0.80;;
44766;SDS011;30487;48.716;9.272;2024-03-02T13:58:03;1.10;;;0.77;;
44766;SDS011;30487;48.716;9.272;2024-03-02T14:00:29;2.10;;;1.13;;
44766;SDS011;30487;48.716;9.272;2024-03-02T14:02:55;1.38;;;0.80;;
44766;SDS011;30487;48.716;9.272;2024-03-02T14:05:20;1.30;;;0.70;;
44766;SDS011;30487;48.716;9.272;2024-03-02T14:07:46;3.03;;;0.75;;
44766;SDS011;30487;48.716;9.272;2024-03-02T14:10:12;1.45;;;0.90;;
44766;SDS011;30487;48.716;9.272;2024-03-02T14:12:38;2.55;;;0.70;;
44766;SDS011;30487;48.716;9.272;2024-03-02T14:15:04;1.95;;;0.80;;
44766;SDS011;30487;48.716;9.272;2024-03-02T14:17:30;1.38;;;0.80;;
44766;SDS011;30487;48.716;9.272;2024-03-02T14:19:58;1.23;;;0.70;;
44766;SDS011;30487;48.716;9.272;2024-03-02T14:22:24;2.90;;;0.90;;
44766;SDS011;30487;48.716;9.272;2024-03-02T14:24:50;1.10;;;0.77;;
44766;SDS011;30487;48.716;9.272;2024-03-02T14:27:16;2.70;;;1.00;;
44766;SDS011;30487;48.716;9.272;2024-03-02T14:29:44;2.60;;;1.10;;
44766;SDS011;30487;48.716;9.272;2024-03-02T14:32:10;1.77;;;0.90;;
44766;SDS011;30487;48.716;9.272;2024-03-02T14:34:36;1.25;;;0.80;;
44766;SDS011;30487;48.716;9.272;2024-03-02T14:37:01;3.70;;;0.80;;
44766;SDS011;30487;48.716;9.272;2024-03-02T14:39:27;1.30;;;0.70;;
44766;SDS011;30487;48.716;9.272;2024-03-02T14:41:54;1.77;;;0.82;;
44766;SDS011;30487;48.716;9.272;2024-03-02T14:44:20;0.75;;;0.60;;